createdAt,value
2019-04-22T00:01:50.344Z,42.01
2019-04-22T00:04:33.693Z,41.88
2019-04-22T00:07:09.805Z,41.84
2019-04-22T00:09:48.550Z,41.63
2019-04-22T00:12:22.224Z,41.67
2019-04-22T00:14:40.647Z,41.80
2019-04-22T00:17:23.314Z,41.61
2019-04-22T00:19:55.505Z,41.51
2019-04-22T00:24:46.821Z,41.80
2019-04-22T00:27:20.335Z,41.72
2019-04-22T00:30:00.582Z,41.55
2019-04-22T00:32:19.407Z,41.32
2019-04-22T00:34:53.809Z,41.27
2019-04-22T00:37:25.221Z,41.25
2019-04-22T00:39:51.357Z,41.48
2019-04-22T00:42:33.307Z,41.57
2019-04-22T00:45:00.732Z,41.19
2019-04-22T00:47:41.105Z,41.18
2019-04-22T00:50:15.887Z,41.14
2019-04-22T00:52:34.298Z,41.13
2019-04-22T00:55:06.076Z,41.04
2019-04-22T00:57:35.539Z,41.15
2019-04-22T01:00:07.230Z,41.06
2019-04-22T01:02:34.758Z,41.17
2019-04-22T01:05:07.940Z,40.96
2019-04-22T01:07:30.469Z,41.04
2019-04-22T01:10:07.601Z,41.01
2019-04-22T01:12:31.878Z,41.03
2019-04-22T01:15:07.079Z,41.14
2019-04-22T01:17:39.723Z,41.10
2019-04-22T01:20:17.553Z,41.06
2019-04-22T01:22:34.919Z,41.12
2019-04-22T01:25:08.026Z,41.24
2019-04-22T01:27:31.063Z,41.53
2019-04-22T01:30:00.856Z,41.11
2019-04-22T01:32:26.088Z,41.07
2019-04-22T01:35:03.473Z,40.87
2019-04-22T01:37:34.610Z,40.92
2019-04-22T01:40:19.883Z,40.69
2019-04-22T01:42:54.421Z,40.56
2019-04-22T01:45:22.570Z,40.39
2019-04-22T01:47:43.725Z,40.22
2019-04-22T01:50:21.403Z,40.43
2019-04-22T01:52:52.197Z,40.59
2019-04-22T01:57:47.698Z,40.75
2019-04-22T02:00:11.275Z,40.83
2019-04-22T02:02:54.945Z,40.88
2019-04-22T02:07:49.288Z,41.44
2019-04-22T02:10:30.702Z,41.39
2019-04-22T02:12:53.221Z,41.07
2019-04-22T02:15:23.350Z,41.25
2019-04-22T02:18:01.283Z,41.56
2019-04-22T02:20:29.621Z,41.56
2019-04-22T02:23:40.223Z,41.63
2019-04-22T02:25:50.995Z,42.04
2019-04-22T02:28:26.043Z,41.90
2019-04-22T02:31:16.033Z,42.01
2019-04-22T02:33:51.326Z,41.95
2019-04-22T02:38:46.638Z,41.97
2019-04-22T02:41:15.702Z,42.03
2019-04-22T02:43:49.287Z,42.27
2019-04-22T02:48:50.310Z,42.42
2019-04-22T02:51:04.305Z,42.38
2019-04-22T02:54:11.940Z,42.32
2019-04-22T02:56:13.377Z,42.29
2019-04-22T02:58:46.999Z,42.39
2019-04-22T03:06:16.534Z,42.60
2019-04-22T03:08:41.478Z,42.75
2019-04-22T03:14:37.596Z,42.75
2019-04-22T03:17:13.503Z,42.68
2019-04-22T03:19:50.505Z,43.02
2019-04-22T03:22:12.481Z,43.17
2019-04-22T03:27:07.459Z,43.12
2019-04-22T03:35:31.665Z,43.31
2019-04-22T03:40:48.202Z,43.57
2019-04-22T03:43:06.826Z,43.75
2019-04-22T03:45:28.268Z,43.80
2019-04-22T03:50:38.798Z,44.06
2019-04-22T03:55:29.013Z,43.98
2019-04-22T04:00:47.732Z,44.17
2019-04-22T04:05:49.967Z,44.06
2019-04-22T04:08:14.676Z,44.02
2019-04-22T04:18:30.671Z,44.25
2019-04-22T04:23:37.925Z,44.54
2019-04-22T04:25:46.799Z,44.50
2019-04-22T04:30:57.476Z,44.88
2019-04-22T04:38:21.152Z,44.88
2019-04-22T04:43:30.016Z,45.25
2019-04-22T04:46:02.884Z,45.21
2019-04-22T04:48:32.312Z,45.17
2019-04-22T04:51:11.150Z,45.17
2019-04-22T04:53:27.156Z,45.20
2019-04-22T04:55:59.957Z,45.11
2019-04-22T04:58:36.867Z,45.27
2019-04-22T05:03:39.949Z,45.26
2019-04-22T05:06:01.359Z,45.21
2019-04-22T05:08:54.371Z,44.70
2019-04-22T05:12:03.699Z,44.55
2019-04-22T05:14:17.728Z,44.29
2019-04-22T05:19:20.234Z,44.19
2019-04-22T05:21:53.050Z,44.18
2019-04-22T05:24:34.452Z,43.76
2019-04-22T05:26:57.065Z,43.77
2019-04-22T05:29:35.104Z,43.48
2019-04-22T05:34:22.798Z,43.33
2019-04-22T05:36:58.891Z,43.12
2019-04-22T05:39:25.003Z,42.03
2019-04-22T05:41:56.070Z,42.62
2019-04-22T05:44:29.399Z,43.44
2019-04-22T05:46:53.212Z,43.00
2019-04-22T05:51:54.639Z,42.58
2019-04-22T05:54:28.530Z,43.11
2019-04-22T05:57:03.880Z,41.54
2019-04-22T05:59:44.551Z,41.02
2019-04-22T06:04:48.036Z,39.76
2019-04-22T06:07:13.701Z,41.41
2019-04-22T06:09:43.614Z,40.90
2019-04-22T06:12:12.312Z,40.01
2019-04-22T06:14:47.945Z,39.76
2019-04-22T06:17:24.867Z,39.58
2019-04-22T06:19:50.521Z,40.17
2019-04-22T06:22:34.366Z,39.56
2019-04-22T06:24:58.975Z,39.17
2019-04-22T06:29:46.169Z,39.66
2019-04-22T06:35:00.420Z,38.72
2019-04-22T06:37:27.980Z,38.39
2019-04-22T06:39:51.015Z,37.83
2019-04-22T06:42:28.561Z,37.99
2019-04-22T06:45:02.765Z,37.66
2019-04-22T06:47:40.084Z,35.92
2019-04-22T06:49:57.029Z,37.30
2019-04-22T06:52:22.614Z,35.89
2019-04-22T06:54:59.406Z,34.52
2019-04-22T06:57:25.565Z,33.90
2019-04-22T07:00:00.465Z,34.21
2019-04-22T07:02:32.159Z,31.54
2019-04-22T07:05:02.138Z,31.71
2019-04-22T07:07:26.769Z,28.98
2019-04-22T07:10:06.625Z,28.78
2019-04-22T07:12:29.145Z,27.48
2019-04-22T07:15:08.518Z,25.90
2019-04-22T07:17:38.075Z,26.65
2019-04-22T07:20:04.307Z,23.66
2019-04-22T07:22:33.787Z,23.81
2019-04-22T07:25:03.134Z,23.14
2019-04-22T07:27:34.210Z,22.30
2019-04-22T07:30:09.339Z,23.31
2019-04-22T07:33:00.663Z,24.14
2019-04-22T07:35:23.934Z,24.46
2019-04-22T07:38:05.771Z,23.12
2019-04-22T07:40:17.160Z,21.98
2019-04-22T07:42:48.170Z,21.89
2019-04-22T07:45:19.797Z,20.70
2019-04-22T07:47:52.097Z,20.26
2019-04-22T07:52:57.090Z,19.31
2019-04-22T07:55:17.837Z,20.66
2019-04-22T07:57:58.947Z,16.05
2019-04-22T08:00:29.217Z,16.45
2019-04-22T08:02:59.156Z,16.49
2019-04-22T08:05:39.316Z,17.38
2019-04-22T08:08:09.553Z,16.62
2019-04-22T08:13:07.365Z,17.19
2019-04-22T08:15:42.041Z,18.90
2019-04-22T08:18:12.796Z,17.74
2019-04-22T08:20:41.539Z,16.50
2019-04-22T08:23:09.625Z,17.22
2019-04-22T08:25:43.790Z,17.39
2019-04-22T08:30:49.175Z,16.82
2019-04-22T08:33:22.059Z,15.99
2019-04-22T08:38:25.369Z,15.28
2019-04-22T08:41:31.867Z,15.00
2019-04-22T08:43:52.385Z,14.76
2019-04-22T08:46:25.594Z,14.58
2019-04-22T08:48:52.902Z,14.57
2019-04-22T08:51:25.311Z,14.39
2019-04-22T08:53:59.886Z,14.15
2019-04-22T08:56:29.845Z,13.70
2019-04-22T08:58:57.311Z,13.88
2019-04-22T09:01:44.951Z,13.98
2019-04-22T09:06:58.128Z,11.14
2019-04-22T09:09:09.755Z,11.79
2019-04-22T09:11:41.454Z,13.07
2019-04-22T09:14:14.014Z,11.32
2019-04-22T09:16:42.804Z,10.88
2019-04-22T09:21:43.441Z,11.57
2019-04-22T09:24:10.516Z,11.80
2019-04-22T09:26:43.616Z,12.48
2019-04-22T09:29:23.583Z,11.63
2019-04-22T09:31:49.751Z,9.90
2019-04-22T09:34:18.435Z,10.34
2019-04-22T09:36:55.454Z,10.40
2019-04-22T09:39:28.286Z,9.58
2019-04-22T09:44:28.194Z,11.26
2019-04-22T09:46:52.430Z,11.39
2019-04-22T09:49:26.662Z,11.39
2019-04-22T09:51:58.649Z,10.89
2019-04-22T09:54:29.705Z,10.09
2019-04-22T09:56:56.444Z,10.52
2019-04-22T09:59:32.967Z,10.95
2019-04-22T10:02:18.357Z,10.87
2019-04-22T10:04:34.655Z,10.07
2019-04-22T10:07:01.050Z,10.16
2019-04-22T10:09:49.538Z,11.29
2019-04-22T10:12:02.138Z,10.64
2019-04-22T10:14:38.481Z,9.31
2019-04-22T10:17:06.708Z,10.47
2019-04-22T10:19:41.173Z,10.83
2019-04-22T10:24:44.994Z,11.91
2019-04-22T10:27:19.042Z,12.29
2019-04-22T10:29:54.171Z,11.80
2019-04-22T10:32:46.298Z,12.28
2019-04-22T10:34:44.007Z,13.03
2019-04-22T10:37:11.276Z,13.85
2019-04-22T10:39:46.111Z,14.46
2019-04-22T10:42:11.382Z,15.13
2019-04-22T10:44:41.586Z,16.12
2019-04-22T10:47:11.893Z,15.64
2019-04-22T10:49:40.631Z,15.93
2019-04-22T10:52:10.926Z,16.28
2019-04-22T10:54:41.210Z,17.43
2019-04-22T10:57:10.868Z,17.16
2019-04-22T10:59:40.725Z,18.66
2019-04-22T11:02:09.793Z,17.83
2019-04-22T11:04:38.701Z,18.63
2019-04-22T11:07:10.825Z,18.26
2019-04-22T11:09:50.486Z,19.30
2019-04-22T11:12:13.671Z,18.91
2019-04-22T11:14:43.107Z,19.78
2019-04-22T11:17:09.382Z,19.53
2019-04-22T11:19:39.343Z,20.28
2019-04-22T11:22:16.889Z,18.28
2019-04-22T11:24:38.958Z,18.26
2019-04-22T11:27:08.355Z,18.75
2019-04-22T11:29:37.472Z,18.85
2019-04-22T11:32:06.542Z,20.30
2019-04-22T11:34:37.485Z,19.84
2019-04-22T11:37:06.353Z,18.02
2019-04-22T11:39:36.706Z,19.54
2019-04-22T11:42:05.672Z,19.86
2019-04-22T11:44:35.292Z,20.50
2019-04-22T11:47:05.351Z,19.05
2019-04-22T11:49:34.316Z,17.81
2019-04-22T11:52:05.496Z,18.85
2019-04-22T11:54:34.960Z,19.96
2019-04-22T11:57:05.327Z,19.45
2019-04-22T11:59:34.365Z,19.79
2019-04-22T12:02:04.632Z,19.91
2019-04-22T12:04:33.961Z,17.98
2019-04-22T12:07:04.260Z,17.41
2019-04-22T12:09:33.531Z,17.56
2019-04-22T12:12:03.494Z,16.51
2019-04-22T12:14:32.251Z,17.69
2019-04-22T12:17:03.600Z,16.96
2019-04-22T12:19:33.442Z,17.60
2019-04-22T12:22:02.941Z,18.24
2019-04-22T12:24:34.232Z,19.04
2019-04-22T12:27:04.324Z,17.52
2019-04-22T12:29:33.224Z,17.58
2019-04-22T12:32:03.224Z,16.96
2019-04-22T12:34:33.256Z,15.67
2019-04-22T12:37:02.660Z,15.90
2019-04-22T12:39:31.690Z,15.93
2019-04-22T12:42:00.444Z,16.83
2019-04-22T12:44:30.487Z,16.69
2019-04-22T12:47:01.738Z,17.10
2019-04-22T12:49:29.950Z,14.43
2019-04-22T12:51:59.012Z,15.60
2019-04-22T12:54:29.064Z,16.04
2019-04-22T12:56:59.791Z,16.81
2019-04-22T12:59:29.792Z,16.61
2019-04-22T13:01:58.691Z,14.66
2019-04-22T13:04:27.981Z,15.84
2019-04-22T13:06:57.679Z,14.99
2019-04-22T13:09:27.489Z,16.68
2019-04-22T13:11:57.157Z,14.72
2019-04-22T13:14:27.228Z,16.23
2019-04-22T13:16:56.004Z,15.54
2019-04-22T13:19:26.521Z,16.40
2019-04-22T13:21:56.558Z,17.83
2019-04-22T13:24:25.955Z,15.70
2019-04-22T13:26:55.101Z,15.57
2019-04-22T13:29:27.585Z,16.77
2019-04-22T13:31:56.387Z,17.54
2019-04-22T13:34:31.629Z,16.94
2019-04-22T13:36:56.736Z,16.63
2019-04-22T13:39:27.147Z,16.64
2019-04-22T13:42:01.644Z,16.83
2019-04-22T13:44:27.988Z,16.46
2019-04-22T13:47:14.543Z,17.25
2019-04-22T13:49:59.292Z,18.33
2019-04-22T13:55:05.724Z,17.66
2019-04-22T13:57:19.985Z,17.12
2019-04-22T13:59:38.108Z,17.90
2019-04-22T14:02:01.889Z,18.71
2019-04-22T14:04:32.795Z,18.04
2019-04-22T14:07:02.798Z,18.30
2019-04-22T14:09:33.585Z,18.26
2019-04-22T14:12:05.709Z,20.20
2019-04-22T14:14:33.719Z,17.96
2019-04-22T14:17:03.003Z,18.60
2019-04-22T14:19:32.247Z,19.11
2019-04-22T14:22:01.959Z,19.06
2019-04-22T14:24:30.748Z,19.77
2019-04-22T14:27:15.170Z,20.34
2019-04-22T14:29:33.569Z,19.80
2019-04-22T14:34:38.399Z,20.11
2019-04-22T14:37:03.556Z,21.29
2019-04-22T14:39:33.861Z,21.89
2019-04-22T14:42:21.692Z,21.24
2019-04-22T14:44:12.632Z,19.81
2019-04-22T14:47:25.652Z,21.33
2019-04-22T14:49:57.442Z,20.97
2019-04-22T14:52:27.797Z,21.09
2019-04-22T14:54:49.258Z,20.29
2019-04-22T14:57:07.210Z,22.16
2019-04-22T14:59:37.486Z,20.45
2019-04-22T15:02:07.591Z,20.36
2019-04-22T15:04:37.301Z,19.87
2019-04-22T15:07:07.349Z,20.00
2019-04-22T15:09:37.823Z,19.57
2019-04-22T15:12:16.417Z,19.96
2019-04-22T15:14:37.660Z,19.26
2019-04-22T15:17:24.959Z,20.09
2019-04-22T15:19:56.072Z,19.14
2019-04-22T15:22:26.297Z,20.09
2019-04-22T15:24:56.573Z,20.18
2019-04-22T15:27:29.605Z,20.18
2019-04-22T15:29:59.182Z,19.62
2019-04-22T15:32:29.357Z,19.62
2019-04-22T15:34:59.600Z,19.80
2019-04-22T15:37:31.094Z,19.25
2019-04-22T15:40:00.561Z,19.89
2019-04-22T15:42:35.594Z,19.91
2019-04-22T15:45:00.017Z,20.04
2019-04-22T15:47:29.283Z,20.44
2019-04-22T15:50:00.369Z,19.56
2019-04-22T15:52:36.280Z,19.37
2019-04-22T15:55:00.658Z,19.60
2019-04-22T15:57:30.748Z,20.81
2019-04-22T16:00:14.408Z,21.35
2019-04-22T16:02:31.763Z,19.78
2019-04-22T16:05:00.557Z,20.92
2019-04-22T16:07:31.866Z,20.42
2019-04-22T16:10:01.799Z,21.71
2019-04-22T16:12:41.448Z,21.71
2019-04-22T16:15:09.602Z,21.46
2019-04-22T16:17:40.450Z,21.05
2019-04-22T16:20:10.928Z,21.07
2019-04-22T16:22:57.347Z,21.29
2019-04-22T16:25:38.774Z,21.63
2019-04-22T16:28:08.876Z,21.80
2019-04-22T16:30:39.432Z,21.99
2019-04-22T16:33:09.838Z,21.70
2019-04-22T16:35:40.776Z,22.60
2019-04-22T16:38:12.843Z,22.21
2019-04-22T16:40:42.875Z,22.24
2019-04-22T16:43:13.513Z,23.29
2019-04-22T16:45:47.521Z,22.95
2019-04-22T16:48:17.474Z,23.06
2019-04-22T16:50:48.665Z,23.64
2019-04-22T16:53:16.997Z,23.42
2019-04-22T16:55:46.638Z,24.24
2019-04-22T16:58:16.657Z,24.84
2019-04-22T17:00:49.684Z,24.16
2019-04-22T17:03:36.592Z,25.36
2019-04-22T17:06:19.506Z,25.03
2019-04-22T17:08:48.728Z,24.63
2019-04-22T17:11:17.962Z,24.79
2019-04-22T17:13:48.132Z,25.30
2019-04-22T17:16:18.042Z,25.37
2019-04-22T17:18:47.128Z,26.14
2019-04-22T17:21:17.404Z,26.17
2019-04-22T17:23:47.550Z,26.29
2019-04-22T17:26:16.748Z,25.86
2019-04-22T17:28:47.211Z,26.53
2019-04-22T17:31:18.602Z,26.64
2019-04-22T17:33:46.791Z,26.71
2019-04-22T17:36:18.337Z,27.17
2019-04-22T17:38:55.082Z,27.52
2019-04-22T17:41:51.184Z,27.83
2019-04-22T17:44:41.397Z,27.71
2019-04-22T17:46:58.529Z,27.99
2019-04-22T17:49:50.279Z,28.29
2019-04-22T17:52:23.175Z,28.16
2019-04-22T17:54:50.275Z,28.32
2019-04-22T17:57:22.406Z,28.54
2019-04-22T17:59:51.811Z,28.92
2019-04-22T18:02:22.665Z,28.73
2019-04-22T18:04:46.001Z,28.35
2019-04-22T18:07:29.603Z,28.59
2019-04-22T18:12:33.528Z,28.66
2019-04-22T18:15:08.898Z,29.24
2019-04-22T18:17:29.109Z,29.23
2019-04-22T18:19:54.558Z,29.97
2019-04-22T18:22:21.780Z,30.77
2019-04-22T18:24:55.754Z,30.60
2019-04-22T18:27:43.007Z,30.92
2019-04-22T18:29:57.174Z,31.17
2019-04-22T18:32:23.066Z,31.82
2019-04-22T18:34:53.051Z,31.78
2019-04-22T18:37:25.204Z,32.34
2019-04-22T18:40:02.228Z,32.17
2019-04-22T18:42:26.803Z,32.34
2019-04-22T18:45:21.724Z,32.79
2019-04-22T18:47:32.323Z,32.68
2019-04-22T18:50:03.027Z,32.94
2019-04-22T18:52:48.764Z,33.01
2019-04-22T18:55:30.980Z,33.42
2019-04-22T18:58:02.763Z,33.31
2019-04-22T19:00:23.440Z,33.64
2019-04-22T19:02:59.038Z,33.81
2019-04-22T19:05:36.895Z,34.16
2019-04-22T19:08:23.110Z,34.15
2019-04-22T19:15:53.842Z,34.37
2019-04-22T19:18:25.655Z,34.45
2019-04-22T19:20:51.330Z,34.61
2019-04-22T19:23:23.542Z,34.51
2019-04-22T19:25:47.218Z,33.79
2019-04-22T19:28:31.232Z,33.58
2019-04-22T19:31:02.642Z,33.30
2019-04-22T19:33:28.775Z,33.21
2019-04-22T19:35:59.921Z,33.45
2019-04-22T19:38:16.528Z,33.53
2019-04-22T19:41:07.043Z,33.52
2019-04-22T19:43:33.216Z,33.05
2019-04-22T19:45:58.933Z,33.10
2019-04-22T19:48:39.674Z,31.80
2019-04-22T19:51:11.107Z,32.09
2019-04-22T19:53:35.658Z,31.65
2019-04-22T19:55:59.850Z,32.52
2019-04-22T19:58:34.903Z,32.78
2019-04-22T20:01:09.140Z,32.18
2019-04-22T20:03:58.092Z,32.69
2019-04-22T20:06:33.663Z,32.62
2019-04-22T20:09:05.787Z,32.68
2019-04-22T20:11:37.610Z,32.78
2019-04-22T20:14:06.351Z,32.77
2019-04-22T20:16:32.456Z,33.02
2019-04-22T20:19:15.561Z,33.36
2019-04-22T20:21:40.318Z,33.39
2019-04-22T20:23:59.192Z,33.55
2019-04-22T20:26:45.555Z,33.45
2019-04-22T20:29:13.099Z,33.27
2019-04-22T20:31:48.585Z,33.67
2019-04-22T20:34:21.517Z,34.06
2019-04-22T20:36:58.054Z,33.83
2019-04-22T20:39:15.058Z,34.12
2019-04-22T20:41:41.105Z,33.78
2019-04-22T20:44:19.047Z,34.33
2019-04-22T20:46:44.769Z,34.27
2019-04-22T20:49:25.686Z,34.49
2019-04-22T20:52:00.284Z,34.18
2019-04-22T20:54:23.244Z,34.51
2019-04-22T20:56:51.832Z,34.71
2019-04-22T20:59:23.750Z,34.68
2019-04-22T21:01:56.682Z,34.78
2019-04-22T21:04:19.638Z,34.83
2019-04-22T21:06:52.790Z,34.89
2019-04-22T21:09:27.378Z,35.44
2019-04-22T21:11:57.806Z,35.51
2019-04-22T21:14:24.492Z,35.44
2019-04-22T21:17:10.173Z,35.97
2019-04-22T21:19:40.371Z,36.09
2019-04-22T21:22:10.883Z,36.13
2019-04-22T21:24:34.474Z,36.07
2019-04-22T21:27:17.010Z,36.26
2019-04-22T21:29:36.330Z,36.48
2019-04-22T21:32:13.615Z,36.69
2019-04-22T21:34:50.978Z,36.96
2019-04-22T21:37:22.203Z,37.08
2019-04-22T21:39:40.730Z,37.24
2019-04-22T21:42:14.339Z,37.37
2019-04-22T21:44:45.678Z,37.23
2019-04-22T21:47:25.628Z,37.44
2019-04-22T21:49:51.414Z,37.33
2019-04-22T21:52:24.506Z,37.46
2019-04-22T21:54:57.002Z,37.66
2019-04-22T21:57:43.797Z,37.62
2019-04-22T22:00:19.947Z,37.91
2019-04-22T22:02:47.169Z,38.10
2019-04-22T22:05:07.533Z,38.00
2019-04-22T22:07:25.633Z,38.08
2019-04-22T22:10:09.870Z,38.13
2019-04-22T22:12:42.646Z,38.31
2019-04-22T22:15:16.285Z,38.34
2019-04-22T22:17:35.380Z,38.56
2019-04-22T22:20:06.129Z,38.68
2019-04-22T22:25:14.386Z,39.08
2019-04-22T22:27:42.120Z,39.47
2019-04-22T22:30:38.806Z,39.48
2019-04-22T22:32:51.404Z,39.57
2019-04-22T22:35:20.976Z,39.95
2019-04-22T22:37:51.790Z,40.15
2019-04-22T22:40:07.421Z,39.92
2019-04-22T22:42:38.099Z,40.40
2019-04-22T22:45:16.861Z,40.39
2019-04-22T22:47:53.612Z,40.59
2019-04-22T22:50:27.470Z,40.61
2019-04-22T22:53:16.991Z,40.94
2019-04-22T22:55:35.837Z,40.94
2019-04-22T22:58:04.122Z,41.26
2019-04-22T23:00:31.296Z,41.39
2019-04-22T23:03:23.196Z,41.72
2019-04-22T23:05:37.724Z,41.58
2019-04-22T23:08:15.727Z,42.00
2019-04-22T23:10:50.756Z,41.90
2019-04-22T23:13:14.687Z,42.15
2019-04-22T23:15:39.497Z,42.49
2019-04-22T23:17:56.181Z,42.79
2019-04-22T23:20:31.013Z,42.71
2019-04-22T23:23:22.009Z,42.88
2019-04-22T23:25:54.704Z,43.21
2019-04-22T23:28:23.498Z,43.31
2019-04-22T23:31:07.507Z,43.55
2019-04-22T23:33:46.338Z,43.57
2019-04-22T23:36:13.697Z,44.09
2019-04-22T23:38:59.225Z,43.97
2019-04-22T23:41:46.288Z,44.26
2019-04-22T23:46:39.647Z,44.38
2019-04-22T23:49:10.186Z,44.84
2019-04-22T23:51:51.170Z,44.92
2019-04-22T23:54:18.672Z,44.87
2019-04-22T23:56:43.695Z,45.18
